Time;durP1;ratioP1;P1;durP2;ratioP2;P2;SDS_P1;SDS_P2;PMS_P1;PMS_P2;Temp;Humidity;BMP_temperature;BMP_pressure;BME280_temperature;BME280_humidity;BME280_pressure;Samples;Min_cycle;Max_cycle;Signal;HPM_P1;HPM_P2
2021/12/31 00:00:50;;;;;;;1.63;1.30;;;12.90;99.90;;;;;;2105149;28;20020;-73
2021/12/31 00:01:52;;;;;;;1.40;1.30;;;12.90;99.90;;;;;;2095815;28;20082;-73
2021/12/31 00:02:53;;;;;;;1.60;1.40;;;12.90;99.90;;;;;;2096468;28;20017;-72
2021/12/31 00:03:55;;;;;;;1.63;1.40;;;12.90;99.90;;;;;;2105198;28;20044;-72
2021/12/31 00:04:56;;;;;;;2.45;1.50;;;12.90;99.90;;;;;;2105143;28;20052;-71
2021/12/31 00:05:57;;;;;;;1.60;1.50;;;12.90;99.90;;;;;;2105032;28;20043;-72
2021/12/31 00:06:58;;;;;;;1.67;1.40;;;13.00;99.90;;;;;;2105168;28;20062;-71
2021/12/31 00:07:58;;;;;;;2.53;2.00;;;13.00;99.90;;;;;;2105281;28;20036;-72
2021/12/31 00:08:59;;;;;;;2.50;1.85;;;13.00;99.90;;;;;;2105199;28;20071;-71
2021/12/31 00:10:01;;;;;;;1.83;1.70;;;13.00;99.90;;;;;;2104934;28;20116;-72
2021/12/31 00:11:01;;;;;;;1.98;1.40;;;13.00;99.90;;;;;;2088029;28;20492;-71
2021/12/31 00:12:04;;;;;;;2.20;1.40;;;13.00;99.90;;;;;;2087911;28;20044;-71
2021/12/31 00:13:04;;;;;;;2.03;1.60;;;13.00;99.90;;;;;;2096906;28;20031;-71
2021/12/31 00:14:06;;;;;;;1.67;1.42;;;13.00;99.90;;;;;;2105561;28;20395;-70
2021/12/31 00:15:07;;;;;;;1.60;1.42;;;13.00;99.90;;;;;;2105945;28;20020;-72
2021/12/31 00:16:08;;;;;;;2.97;1.60;;;13.00;99.90;;;;;;2105652;28;20028;-71
2021/12/31 00:17:08;;;;;;;2.38;1.63;;;12.90;99.90;;;;;;2096831;28;20067;-75
2021/12/31 00:18:10;;;;;;;1.80;1.40;;;12.90;99.90;;;;;;2096947;28;20498;-71
2021/12/31 00:19:11;;;;;;;2.95;1.30;;;12.90;99.90;;;;;;2106458;28;20028;-70
2021/12/31 00:20:16;;;;;;;2.33;1.60;;;12.90;99.90;;;;;;2105501;28;20024;-70
2021/12/31 00:21:16;;;;;;;2.40;1.60;;;12.90;99.90;;;;;;2105642;28;20622;-70
2021/12/31 00:22:42;;;;;;;1.52;1.42;;;12.90;99.90;;;;;;2105893;28;20032;-72
2021/12/31 00:23:38;;;;;;;2.00;1.48;;;12.90;99.90;;;;;;2105864;28;20036;-70
2021/12/31 00:24:38;;;;;;;2.15;1.55;;;13.00;99.90;;;;;;2105910;28;20108;-71
2021/12/31 00:25:41;;;;;;;2.25;1.40;;;13.00;99.90;;;;;;2105953;28;20032;-72
2021/12/31 00:26:41;;;;;;;1.90;1.50;;;13.00;99.90;;;;;;2105264;28;20032;-71
2021/12/31 00:27:42;;;;;;;1.60;1.50;;;13.00;99.90;;;;;;2105176;28;20116;-70
2021/12/31 00:28:42;;;;;;;3.05;1.30;;;12.90;99.90;;;;;;2105250;28;20032;-70
2021/12/31 00:29:43;;;;;;;1.77;1.38;;;13.00;99.90;;;;;;2095490;28;20040;-70
2021/12/31 00:30:46;;;;;;;2.92;1.50;;;13.00;99.90;;;;;;2096276;28;20024;-71
2021/12/31 00:31:47;;;;;;;1.40;1.30;;;12.90;99.90;;;;;;2096098;28;20025;-73
2021/12/31 00:32:48;;;;;;;1.70;1.40;;;13.00;99.90;;;;;;2097642;28;20037;-73
2021/12/31 00:33:49;;;;;;;2.60;1.40;;;12.90;99.90;;;;;;2106315;28;20035;-72
2021/12/31 00:34:50;;;;;;;2.08;1.38;;;12.90;99.90;;;;;;2106620;28;20448;-72
2021/12/31 00:35:51;;;;;;;2.03;1.50;;;12.90;99.90;;;;;;2106567;28;20036;-72
2021/12/31 00:36:51;;;;;;;2.78;1.60;;;13.00;99.90;;;;;;2097548;28;20387;-72
2021/12/31 00:37:52;;;;;;;1.92;1.50;;;13.00;99.90;;;;;;2088875;28;20070;-72
2021/12/31 00:38:52;;;;;;;1.50;1.40;;;13.00;99.90;;;;;;2097585;28;20642;-71
2021/12/31 00:39:54;;;;;;;1.83;1.30;;;13.00;99.90;;;;;;2106061;28;20435;-72
2021/12/31 00:40:55;;;;;;;2.25;1.60;;;13.00;99.90;;;;;;2106543;28;20055;-72
2021/12/31 00:41:55;;;;;;;1.60;1.50;;;13.00;99.90;;;;;;2097342;28;20563;-72
2021/12/31 00:42:56;;;;;;;1.50;1.40;;;12.90;99.90;;;;;;2097713;28;20107;-71
2021/12/31 00:43:57;;;;;;;1.45;1.35;;;12.90;99.90;;;;;;2106637;28;20068;-70
2021/12/31 00:44:58;;;;;;;2.58;1.50;;;12.90;99.90;;;;;;2106565;28;20027;-71
2021/12/31 00:46:01;;;;;;;2.38;1.50;;;12.90;99.90;;;;;;2106569;28;20081;-70
2021/12/31 00:47:02;;;;;;;3.35;1.50;;;12.90;99.90;;;;;;2097610;28;20471;-72
2021/12/31 00:48:03;;;;;;;2.42;1.60;;;12.90;99.90;;;;;;2097568;28;20104;-71
2021/12/31 00:49:05;;;;;;;1.42;1.30;;;12.90;99.90;;;;;;2097385;28;20032;-73
2021/12/31 00:50:07;;;;;;;2.15;1.45;;;12.90;99.90;;;;;;2097061;28;20047;-71
2021/12/31 00:51:08;;;;;;;3.20;1.70;;;12.90;99.90;;;;;;2097435;28;20066;-71
2021/12/31 00:52:08;;;;;;;2.80;1.45;;;12.90;99.90;;;;;;2097045;28;20036;-71
2021/12/31 00:53:09;;;;;;;2.63;2.17;;;12.90;99.90;;;;;;2089230;28;20021;-72
2021/12/31 00:54:10;;;;;;;1.85;1.55;;;12.90;99.90;;;;;;2089343;28;20033;-72
2021/12/31 00:55:12;;;;;;;2.13;1.80;;;12.90;99.90;;;;;;2106585;28;20029;-71
2021/12/31 00:56:12;;;;;;;2.42;2.03;;;12.90;99.90;;;;;;2106589;28;20395;-73
2021/12/31 00:57:13;;;;;;;2.30;1.90;;;12.90;99.90;;;;;;2106560;28;20115;-71
2021/12/31 00:58:13;;;;;;;2.63;2.05;;;12.80;99.90;;;;;;2106526;28;20039;-73
2021/12/31 00:59:14;;;;;;;2.50;1.80;;;12.80;99.90;;;;;;2105760;28;20036;-74
2021/12/31 01:00:15;;;;;;;1.65;1.55;;;12.80;99.90;;;;;;2106341;28;20051;-72
2021/12/31 01:01:19;;;;;;;3.80;1.60;;;12.80;99.90;;;;;;2106363;28;20490;-72
2021/12/31 01:02:22;;;;;;;2.03;1.40;;;12.80;99.90;;;;;;2105874;28;20093;-72
2021/12/31 01:03:23;;;;;;;1.52;1.40;;;12.80;99.90;;;;;;2106465;28;20122;-73
2021/12/31 01:04:24;;;;;;;1.70;1.30;;;12.70;99.90;;;;;;2106663;28;20452;-73
2021/12/31 01:05:25;;;;;;;2.20;1.50;;;12.70;99.90;;;;;;2107205;28;20157;-71
2021/12/31 01:06:26;;;;;;;1.40;1.30;;;12.80;99.90;;;;;;2107398;28;20036;-72
2021/12/31 01:07:27;;;;;;;3.08;1.40;;;12.80;99.90;;;;;;2098654;28;20123;-71
2021/12/31 01:08:28;;;;;;;1.52;1.20;;;12.80;99.90;;;;;;2090252;28;20047;-72
2021/12/31 01:09:30;;;;;;;2.85;1.30;;;12.80;99.90;;;;;;2089494;28;20039;-72
2021/12/31 01:10:31;;;;;;;1.95;1.50;;;12.80;99.90;;;;;;2089453;28;20029;-73
2021/12/31 01:11:33;;;;;;;1.52;1.30;;;12.90;99.90;;;;;;2097396;28;20768;-72
2021/12/31 01:12:33;;;;;;;1.88;1.30;;;12.80;99.90;;;;;;2106466;28;20769;-71
2021/12/31 01:13:47;;;;;;;1.40;1.30;;;12.90;99.90;;;;;;2106556;28;20053;-71
2021/12/31 01:14:58;;;;;;;1.63;1.20;;;12.90;99.90;;;;;;2106582;28;20033;-72
2021/12/31 01:16:01;;;;;;;2.45;1.20;;;12.90;99.90;;;;;;2097291;28;20029;-71
2021/12/31 01:17:05;;;;;;;2.28;1.25;;;12.90;99.90;;;;;;2089352;28;20033;-71
2021/12/31 01:20:15;;;;;;;1.52;1.40;;;12.90;99.90;;;;;;2106529;28;20032;-72
2021/12/31 01:21:16;;;;;;;1.30;1.20;;;12.90;99.90;;;;;;2106416;28;20418;-71
2021/12/31 01:22:19;;;;;;;2.15;1.50;;;12.90;99.90;;;;;;2106352;28;20043;-71
2021/12/31 01:23:20;;;;;;;1.55;1.40;;;12.90;99.90;;;;;;2106292;28;20028;-70
2021/12/31 01:24:25;;;;;;;1.45;1.30;;;12.90;99.90;;;;;;2097435;28;20102;-71
2021/12/31 01:25:25;;;;;;;3.17;1.45;;;12.90;99.90;;;;;;2097991;28;20036;-71
2021/12/31 01:26:26;;;;;;;1.40;1.30;;;12.90;99.90;;;;;;2106449;28;20078;-70
2021/12/31 01:27:27;;;;;;;2.42;1.30;;;12.90;99.90;;;;;;2106412;28;20094;-71
2021/12/31 01:28:28;;;;;;;1.65;1.27;;;12.90;99.90;;;;;;2097359;28;20012;-71
2021/12/31 01:29:28;;;;;;;1.30;1.20;;;12.90;99.90;;;;;;2097112;28;20462;-71
2021/12/31 01:30:29;;;;;;;1.35;1.25;;;12.90;99.90;;;;;;2097643;28;20154;-72
2021/12/31 01:31:29;;;;;;;2.22;1.48;;;12.90;99.90;;;;;;2097414;28;20074;-71
2021/12/31 01:32:31;;;;;;;1.27;1.17;;;13.00;99.90;;;;;;2106534;28;20039;-71
2021/12/31 01:33:32;;;;;;;1.00;1.00;;;13.00;99.90;;;;;;2106545;28;20024;-71
2021/12/31 01:34:32;;;;;;;1.33;1.15;;;13.00;99.90;;;;;;2106294;28;20469;-71
2021/12/31 01:35:33;;;;;;;1.15;1.05;;;13.00;99.90;;;;;;2106348;28;20470;-73
2021/12/31 01:36:34;;;;;;;1.25;1.10;;;13.00;99.90;;;;;;2097443;28;20036;-71
2021/12/31 01:37:35;;;;;;;1.60;1.30;;;13.00;99.90;;;;;;2097365;28;20051;-71
2021/12/31 01:38:36;;;;;;;2.35;1.10;;;13.10;99.90;;;;;;2106334;28;20020;-72
2021/12/31 01:39:37;;;;;;;1.40;1.20;;;13.10;99.90;;;;;;2096903;28;20089;-72
2021/12/31 01:40:38;;;;;;;1.25;1.15;;;13.10;99.90;;;;;;2097375;28;20086;-74
2021/12/31 01:41:40;;;;;;;1.15;1.08;;;13.10;99.90;;;;;;2096814;28;20165;-75
2021/12/31 01:42:40;;;;;;;1.20;1.10;;;13.10;99.90;;;;;;2106158;28;20153;-75
2021/12/31 01:43:41;;;;;;;1.27;1.10;;;13.20;99.90;;;;;;2105662;28;20208;-74
2021/12/31 01:44:51;;;;;;;2.10;1.20;;;13.20;99.90;;;;;;2106204;28;20024;-74
2021/12/31 01:45:55;;;;;;;1.20;1.10;;;13.20;99.90;;;;;;2106286;28;20107;-74
2021/12/31 01:47:04;;;;;;;1.50;1.30;;;13.20;99.90;;;;;;2106017;28;20722;-74
2021/12/31 01:48:20;;;;;;;2.72;1.20;;;13.10;99.90;;;;;;2106614;28;20048;-74
2021/12/31 01:49:22;;;;;;;1.42;1.10;;;13.10;99.90;;;;;;2105810;28;20028;-75
2021/12/31 01:50:29;;;;;;;1.20;1.10;;;13.10;99.90;;;;;;2106133;28;20043;-73
2021/12/31 01:51:30;;;;;;;1.45;1.13;;;13.10;99.90;;;;;;2106227;28;20121;-74
2021/12/31 01:52:30;;;;;;;2.15;1.20;;;13.20;99.90;;;;;;2106310;28;20031;-74
2021/12/31 01:53:32;;;;;;;1.38;1.10;;;13.20;99.90;;;;;;2106608;28;20020;-74
2021/12/31 01:54:34;;;;;;;1.20;1.10;;;13.20;99.90;;;;;;2106073;28;20108;-74
2021/12/31 01:55:35;;;;;;;1.17;1.08;;;13.20;99.90;;;;;;2097070;28;20035;-73
2021/12/31 01:56:36;;;;;;;1.35;1.00;;;13.20;99.90;;;;;;2097149;28;20119;-72
2021/12/31 01:57:40;;;;;;;1.13;1.02;;;13.20;99.90;;;;;;2097066;28;20475;-72
2021/12/31 01:58:42;;;;;;;1.55;1.25;;;13.20;99.90;;;;;;2105777;28;20425;-73
2021/12/31 01:59:43;;;;;;;1.15;1.05;;;13.20;99.90;;;;;;2105335;28;20042;-71
2021/12/31 02:00:44;;;;;;;1.30;1.00;;;13.20;99.90;;;;;;2105872;28;20384;-71
2021/12/31 02:01:45;;;;;;;1.77;1.10;;;13.20;99.90;;;;;;2096462;28;20510;-71
2021/12/31 02:02:48;;;;;;;1.20;1.10;;;13.20;99.90;;;;;;2097204;28;20125;-72
2021/12/31 02:03:51;;;;;;;1.30;1.20;;;13.20;99.90;;;;;;2105900;28;20024;-71
2021/12/31 02:04:53;;;;;;;2.50;1.10;;;13.20;99.90;;;;;;2105858;28;20620;-71
2021/12/31 02:05:54;;;;;;;1.45;1.10;;;13.20;99.90;;;;;;2105572;28;20043;-71
2021/12/31 02:06:56;;;;;;;1.48;1.02;;;13.20;99.90;;;;;;2105794;28;20130;-71
2021/12/31 02:08:00;;;;;;;1.38;1.00;;;13.30;99.90;;;;;;2105718;28;20491;-71
2021/12/31 02:09:05;;;;;;;1.00;0.90;;;13.30;99.90;;;;;;2105794;28;20028;-71
2021/12/31 02:10:07;;;;;;;2.15;1.10;;;13.30;99.90;;;;;;2096228;28;20475;-70
2021/12/31 02:11:08;;;;;;;2.08;1.10;;;13.30;99.90;;;;;;2097059;28;20067;-71
2021/12/31 02:12:09;;;;;;;2.17;1.17;;;13.30;99.90;;;;;;2105434;28;20467;-71
2021/12/31 02:13:10;;;;;;;1.70;1.10;;;13.30;99.90;;;;;;2105862;28;20495;-70
2021/12/31 02:14:10;;;;;;;1.05;1.05;;;13.30;99.90;;;;;;2105772;28;20115;-72
2021/12/31 02:15:12;;;;;;;3.30;1.10;;;13.30;99.90;;;;;;2105596;28;20066;-70
2021/12/31 02:16:13;;;;;;;3.50;1.13;;;13.30;99.90;;;;;;2096845;28;20033;-71
2021/12/31 02:17:13;;;;;;;2.17;1.08;;;13.30;99.90;;;;;;2096731;28;20536;-72
2021/12/31 02:18:14;;;;;;;1.88;1.00;;;13.30;99.90;;;;;;2105775;28;20058;-72
2021/12/31 02:19:17;;;;;;;1.52;1.13;;;13.30;99.90;;;;;;2105350;28;20028;-72
2021/12/31 02:20:19;;;;;;;1.83;1.10;;;13.30;99.90;;;;;;2096801;28;20063;-72
2021/12/31 02:21:21;;;;;;;1.33;1.00;;;13.30;99.90;;;;;;2096992;28;20080;-72
2021/12/31 02:22:27;;;;;;;1.08;1.00;;;13.30;99.90;;;;;;2105582;28;20032;-72
2021/12/31 02:23:34;;;;;;;1.15;1.05;;;13.30;99.90;;;;;;2096819;28;20384;-72
2021/12/31 02:24:36;;;;;;;1.55;1.10;;;13.30;99.90;;;;;;2097832;28;20807;-72
2021/12/31 02:25:37;;;;;;;1.75;0.98;;;13.30;99.90;;;;;;2105820;28;20020;-73
2021/12/31 02:26:38;;;;;;;1.02;0.95;;;13.30;99.90;;;;;;2105615;28;20028;-72
2021/12/31 02:27:40;;;;;;;1.08;1.00;;;13.30;99.90;;;;;;2096598;28;20059;-72
2021/12/31 02:28:41;;;;;;;1.13;1.00;;;13.30;99.90;;;;;;2096721;28;20033;-71
2021/12/31 02:29:41;;;;;;;1.63;1.00;;;13.20;99.90;;;;;;2096078;28;20094;-71
2021/12/31 02:30:42;;;;;;;1.48;1.10;;;13.20;99.90;;;;;;2096750;28;20101;-71
2021/12/31 02:31:43;;;;;;;1.10;1.00;;;13.20;99.90;;;;;;2105286;28;20035;-71
2021/12/31 02:32:44;;;;;;;1.38;1.00;;;13.20;99.90;;;;;;2096531;28;20136;-71
2021/12/31 02:33:45;;;;;;;1.52;1.20;;;13.20;99.90;;;;;;2096570;28;20029;-70
2021/12/31 02:34:46;;;;;;;1.63;1.25;;;13.20;99.90;;;;;;2096696;28;20181;-71
2021/12/31 02:35:47;;;;;;;1.73;1.10;;;13.20;99.90;;;;;;2105576;28;20044;-72
2021/12/31 02:36:48;;;;;;;1.27;0.90;;;13.20;99.90;;;;;;2105561;28;20554;-72
2021/12/31 02:37:48;;;;;;;1.10;1.00;;;13.20;99.90;;;;;;2105525;28;20395;-71
2021/12/31 02:38:50;;;;;;;1.05;1.00;;;13.20;99.90;;;;;;2105630;28;20407;-72
2021/12/31 02:39:51;;;;;;;2.00;0.98;;;13.30;99.90;;;;;;2105080;28;20043;-72
2021/12/31 02:40:51;;;;;;;1.15;1.05;;;13.30;99.90;;;;;;2096543;28;20029;-72
2021/12/31 02:41:52;;;;;;;1.00;0.90;;;13.30;99.90;;;;;;2088001;28;20799;-72
2021/12/31 02:42:53;;;;;;;2.10;1.00;;;13.30;99.90;;;;;;2096560;28;20064;-72
2021/12/31 02:43:55;;;;;;;2.17;1.00;;;13.30;99.90;;;;;;2105588;28;20089;-72
2021/12/31 02:44:56;;;;;;;0.90;0.90;;;13.30;99.90;;;;;;2105614;28;20154;-73
2021/12/31 02:45:57;;;;;;;1.15;1.02;;;13.30;99.90;;;;;;2105600;28;20070;-73
2021/12/31 02:47:02;;;;;;;3.13;1.05;;;13.30;99.90;;;;;;2105545;28;20446;-73
2021/12/31 02:48:05;;;;;;;1.58;1.00;;;13.30;99.90;;;;;;2105343;28;20020;-72
2021/12/31 02:49:06;;;;;;;1.08;1.00;;;13.30;99.90;;;;;;2105722;28;20051;-72
2021/12/31 02:50:07;;;;;;;3.03;1.10;;;13.30;99.90;;;;;;2105162;28;20051;-72
2021/12/31 02:51:07;;;;;;;1.20;1.10;;;13.30;99.90;;;;;;2105657;28;20038;-72
2021/12/31 02:52:11;;;;;;;1.73;1.10;;;13.30;99.90;;;;;;2105233;28;20067;-72
2021/12/31 02:53:14;;;;;;;1.83;0.90;;;13.30;99.90;;;;;;2105514;28;20476;-72
2021/12/31 02:54:17;;;;;;;1.00;1.00;;;13.40;99.90;;;;;;2096491;28;20028;-73
2021/12/31 02:55:19;;;;;;;1.38;1.10;;;13.40;99.90;;;;;;2096373;28;20029;-73
2021/12/31 02:56:20;;;;;;;1.55;1.00;;;13.40;99.90;;;;;;2105171;28;20093;-73
2021/12/31 02:57:21;;;;;;;1.05;1.00;;;13.40;99.90;;;;;;2105607;28;20463;-73
2021/12/31 02:58:22;;;;;;;1.10;1.00;;;13.40;99.90;;;;;;2105479;28;20020;-73
2021/12/31 02:59:23;;;;;;;1.85;1.10;;;13.40;99.90;;;;;;2105615;28;20060;-72
2021/12/31 03:00:23;;;;;;;1.55;1.10;;;13.30;99.90;;;;;;2097748;28;20025;-72
2021/12/31 03:01:24;;;;;;;0.88;0.88;;;13.40;99.90;;;;;;2097640;28;20085;-72
2021/12/31 03:02:26;;;;;;;2.78;1.10;;;13.40;99.90;;;;;;2107032;28;20036;-72
2021/12/31 03:03:28;;;;;;;1.30;1.00;;;13.40;99.90;;;;;;2106815;28;20518;-73
2021/12/31 03:04:30;;;;;;;1.20;1.10;;;13.30;99.90;;;;;;2107156;28;20644;-73
2021/12/31 03:05:33;;;;;;;2.28;1.13;;;13.30;99.90;;;;;;2107465;28;20471;-73
2021/12/31 03:06:34;;;;;;;0.90;0.90;;;13.30;99.90;;;;;;2106407;28;20052;-73
2021/12/31 03:07:39;;;;;;;1.08;0.90;;;13.30;99.90;;;;;;2105486;28;20115;-73
2021/12/31 03:08:44;;;;;;;1.10;0.90;;;13.30;99.90;;;;;;2096407;28;20115;-73
2021/12/31 03:09:48;;;;;;;1.23;1.08;;;13.30;99.90;;;;;;2096602;28;20387;-73
2021/12/31 03:10:49;;;;;;;1.23;1.08;;;13.20;99.90;;;;;;2105346;28;20032;-73
2021/12/31 03:11:56;;;;;;;0.98;0.95;;;13.20;99.90;;;;;;2105068;28;20020;-73
2021/12/31 03:12:58;;;;;;;1.13;1.02;;;13.20;99.90;;;;;;2105236;28;20643;-73
2021/12/31 03:13:59;;;;;;;1.08;1.00;;;13.20;99.90;;;;;;2105395;28;20474;-73
2021/12/31 03:15:01;;;;;;;1.35;1.10;;;13.30;99.90;;;;;;2105558;28;20031;-73
2021/12/31 03:16:02;;;;;;;2.58;1.10;;;13.30;99.90;;;;;;2105414;28;20036;-73
2021/12/31 03:17:03;;;;;;;1.02;1.02;;;13.30;99.90;;;;;;2105463;28;20035;-72
2021/12/31 03:18:06;;;;;;;1.20;1.10;;;13.30;99.90;;;;;;2105393;28;20345;-73
2021/12/31 03:19:07;;;;;;;1.20;1.10;;;13.30;99.90;;;;;;2096414;28;20478;-73
2021/12/31 03:20:25;;;;;;;1.00;0.90;;;13.30;99.90;;;;;;2096094;28;20484;-73
2021/12/31 03:21:25;;;;;;;2.17;1.10;;;13.30;99.90;;;;;;2096221;28;20024;-76
2021/12/31 03:22:26;;;;;;;1.52;1.10;;;13.30;99.90;;;;;;2096538;28;20547;-76
2021/12/31 03:23:29;;;;;;;1.23;1.00;;;13.30;99.90;;;;;;2105536;28;20031;-75
2021/12/31 03:24:29;;;;;;;1.20;1.10;;;13.30;99.90;;;;;;2105325;28;20169;-73
2021/12/31 03:25:30;;;;;;;1.80;1.20;;;13.30;99.90;;;;;;2105364;28;20077;-71
2021/12/31 03:26:31;;;;;;;1.90;1.42;;;13.30;99.90;;;;;;2105207;28;20508;-72
2021/12/31 03:27:32;;;;;;;1.20;1.00;;;13.30;99.90;;;;;;2105216;28;20071;-71
2021/12/31 03:28:32;;;;;;;2.78;1.10;;;13.30;99.90;;;;;;2096318;28;20117;-71
2021/12/31 03:29:33;;;;;;;1.52;1.08;;;13.30;99.90;;;;;;2095845;28;20062;-71
2021/12/31 03:30:34;;;;;;;1.85;1.10;;;13.30;99.90;;;;;;2096440;28;20067;-72
2021/12/31 03:31:34;;;;;;;1.10;1.00;;;13.30;99.90;;;;;;2095928;28;20041;-72
2021/12/31 03:32:35;;;;;;;2.30;1.10;;;13.30;99.90;;;;;;2095989;28;20028;-71
2021/12/31 03:33:36;;;;;;;2.70;1.10;;;13.30;99.90;;;;;;2096310;28;20523;-71
2021/12/31 03:34:36;;;;;;;1.30;1.15;;;13.30;99.90;;;;;;2105264;28;20028;-71
2021/12/31 03:35:37;;;;;;;3.17;1.10;;;13.30;99.90;;;;;;2105179;28;20023;-74
2021/12/31 03:36:37;;;;;;;1.77;1.00;;;13.20;99.90;;;;;;2105333;28;20047;-72
2021/12/31 03:37:38;;;;;;;1.95;1.40;;;13.30;99.90;;;;;;2105205;28;20078;-72
2021/12/31 03:38:39;;;;;;;1.30;1.20;;;13.20;99.90;;;;;;2105179;28;20499;-72
2021/12/31 03:39:39;;;;;;;1.10;1.00;;;13.20;99.90;;;;;;2095829;28;20025;-71
2021/12/31 03:40:40;;;;;;;1.80;1.00;;;13.20;99.90;;;;;;2088752;28;20033;-72
2021/12/31 03:41:41;;;;;;;1.20;1.10;;;13.20;99.90;;;;;;2096587;28;20124;-71
2021/12/31 03:42:42;;;;;;;1.20;1.10;;;13.20;99.90;;;;;;2105568;28;20024;-71
2021/12/31 03:43:43;;;;;;;1.50;1.00;;;13.20;99.90;;;;;;2105723;28;20116;-72
2021/12/31 03:44:44;;;;;;;2.20;0.98;;;13.20;99.90;;;;;;2105200;28;20020;-70
2021/12/31 03:45:46;;;;;;;2.83;1.20;;;13.20;99.90;;;;;;2105320;28;20035;-70
2021/12/31 03:46:47;;;;;;;1.42;0.90;;;13.20;99.90;;;;;;2096306;28;20123;-71
2021/12/31 03:47:47;;;;;;;1.67;1.02;;;13.20;99.90;;;;;;2096373;28;20040;-72
2021/12/31 03:48:48;;;;;;;1.48;1.00;;;13.20;99.90;;;;;;2096343;28;20046;-71
2021/12/31 03:49:49;;;;;;;1.30;0.95;;;13.20;99.90;;;;;;2095796;28;20424;-70
2021/12/31 03:50:49;;;;;;;1.25;1.00;;;13.10;99.90;;;;;;2096369;28;20035;-71
2021/12/31 03:51:50;;;;;;;1.00;0.93;;;13.10;99.90;;;;;;2104958;28;20036;-71
2021/12/31 03:52:54;;;;;;;2.10;1.20;;;13.10;99.90;;;;;;2105084;28;20056;-71
2021/12/31 03:53:54;;;;;;;1.20;1.10;;;13.10;99.90;;;;;;2105063;28;20026;-72
2021/12/31 03:54:55;;;;;;;2.67;1.20;;;13.10;99.90;;;;;;2105187;28;20023;-71
2021/12/31 03:55:56;;;;;;;1.30;1.02;;;13.00;99.90;;;;;;2096023;28;20021;-71
2021/12/31 03:56:56;;;;;;;1.77;1.00;;;13.00;99.90;;;;;;2096240;28;20494;-73
2021/12/31 03:57:57;;;;;;;1.20;1.10;;;13.00;99.90;;;;;;2105261;28;20026;-72
2021/12/31 03:58:59;;;;;;;1.00;1.00;;;13.00;99.90;;;;;;2105154;28;20115;-71
2021/12/31 04:00:00;;;;;;;1.83;1.20;;;12.90;99.90;;;;;;2104924;28;20023;-71
2021/12/31 04:01:01;;;;;;;1.58;1.10;;;12.90;99.90;;;;;;2105355;28;20043;-73
2021/12/31 04:02:01;;;;;;;1.77;1.10;;;12.90;99.90;;;;;;2104834;28;20081;-73
2021/12/31 04:03:06;;;;;;;3.17;1.00;;;12.90;99.90;;;;;;2105114;28;20086;-73
2021/12/31 04:04:08;;;;;;;2.13;1.00;;;12.80;99.90;;;;;;2105159;28;20084;-73
2021/12/31 04:05:09;;;;;;;2.75;1.17;;;12.80;99.90;;;;;;2105174;28;20023;-73
2021/12/31 04:06:10;;;;;;;1.77;1.20;;;12.80;99.90;;;;;;2096089;28;20086;-76
2021/12/31 04:07:10;;;;;;;1.85;1.20;;;12.80;99.90;;;;;;2088905;28;20028;-75
2021/12/31 04:08:11;;;;;;;1.10;1.00;;;12.80;99.90;;;;;;2097621;28;20052;-74
2021/12/31 04:09:11;;;;;;;1.42;1.10;;;12.80;99.90;;;;;;2089637;28;20153;-74
2021/12/31 04:10:12;;;;;;;2.45;1.20;;;12.70;99.90;;;;;;2089126;28;20048;-74
2021/12/31 04:11:13;;;;;;;1.33;1.10;;;12.70;99.90;;;;;;2106673;28;20036;-75
2021/12/31 04:12:14;;;;;;;1.33;1.13;;;12.70;99.90;;;;;;2106476;28;20107;-74
2021/12/31 04:13:14;;;;;;;2.30;1.30;;;12.60;99.90;;;;;;2097854;28;20025;-76
2021/12/31 04:14:15;;;;;;;1.95;1.20;;;12.60;99.90;;;;;;2097891;28;20032;-76
2021/12/31 04:15:15;;;;;;;1.15;1.05;;;12.60;99.90;;;;;;2106852;28;20240;-76
2021/12/31 04:16:16;;;;;;;1.38;1.20;;;12.50;99.90;;;;;;2106920;28;20102;-72
2021/12/31 04:17:17;;;;;;;1.45;1.10;;;12.50;99.90;;;;;;2106995;28;20674;-75
2021/12/31 04:18:17;;;;;;;1.63;1.10;;;12.50;99.90;;;;;;2106811;28;20024;-74
2021/12/31 04:19:18;;;;;;;1.52;1.13;;;12.50;99.90;;;;;;2106288;28;20524;-74
2021/12/31 04:20:34;;;;;;;1.58;1.10;;;12.50;99.90;;;;;;2097904;28;20028;-73
2021/12/31 04:21:34;;;;;;;3.00;1.27;;;12.50;99.90;;;;;;2091256;28;20428;-74
2021/12/31 04:22:37;;;;;;;2.03;1.23;;;12.50;99.90;;;;;;2097763;28;20071;-74
2021/12/31 04:23:48;;;;;;;1.55;1.10;;;12.60;99.90;;;;;;2106870;28;20500;-75
2021/12/31 04:25:50;;;;;;;2.17;1.30;;;12.60;99.90;;;;;;2106624;28;20020;-75
2021/12/31 04:26:50;;;;;;;1.55;1.10;;;12.60;99.90;;;;;;2106766;28;20437;-75
2021/12/31 04:27:51;;;;;;;1.75;1.27;;;12.60;99.90;;;;;;2106670;28;20028;-74
2021/12/31 04:28:51;;;;;;;2.05;1.30;;;12.60;99.90;;;;;;2106667;28;20020;-74
2021/12/31 04:29:52;;;;;;;2.63;1.27;;;12.60;99.90;;;;;;2106171;28;20560;-75
2021/12/31 04:30:54;;;;;;;1.48;1.25;;;12.50;99.90;;;;;;2106672;28;20107;-75
2021/12/31 04:31:55;;;;;;;1.45;1.25;;;12.50;99.90;;;;;;2106281;28;20032;-74
2021/12/31 04:32:55;;;;;;;1.40;1.30;;;12.50;99.90;;;;;;2106686;28;20024;-74
2021/12/31 04:33:56;;;;;;;1.77;1.25;;;12.50;99.90;;;;;;2106850;28;20016;-74
2021/12/31 04:34:56;;;;;;;2.15;1.25;;;12.50;99.90;;;;;;2097632;28;20463;-73
2021/12/31 04:35:57;;;;;;;1.50;1.30;;;12.50;99.90;;;;;;2097541;28;20107;-74
2021/12/31 04:36:58;;;;;;;1.80;1.30;;;12.50;99.90;;;;;;2106673;28;20075;-73
2021/12/31 04:37:59;;;;;;;2.15;1.30;;;12.50;99.90;;;;;;2106614;28;20031;-74
2021/12/31 04:39:00;;;;;;;2.60;1.30;;;12.50;99.90;;;;;;2106613;28;20020;-74
2021/12/31 04:40:00;;;;;;;1.30;1.20;;;12.50;99.90;;;;;;2106142;28;20505;-74
2021/12/31 04:41:01;;;;;;;1.40;1.30;;;12.50;99.90;;;;;;2097641;28;20051;-74
2021/12/31 04:42:02;;;;;;;1.67;1.30;;;12.50;99.90;;;;;;2097558;28;20020;-74
2021/12/31 04:43:03;;;;;;;1.27;1.17;;;12.40;99.90;;;;;;2097925;28;20033;-75
2021/12/31 04:44:03;;;;;;;2.00;1.40;;;12.40;99.90;;;;;;2106733;28;20040;-75
2021/12/31 04:45:04;;;;;;;1.60;1.33;;;12.40;99.90;;;;;;2106911;28;20493;-74
2021/12/31 04:46:05;;;;;;;2.03;1.40;;;12.30;99.90;;;;;;2106453;28;20040;-74
2021/12/31 04:47:06;;;;;;;2.20;1.55;;;12.30;99.90;;;;;;2106694;28;20059;-73
2021/12/31 04:48:07;;;;;;;2.45;1.50;;;12.30;99.90;;;;;;2106610;28;20031;-73
2021/12/31 04:49:07;;;;;;;1.33;1.20;;;12.40;99.90;;;;;;2106843;28;20434;-73
2021/12/31 04:50:08;;;;;;;1.38;1.20;;;12.40;99.90;;;;;;2106215;28;20040;-74
2021/12/31 04:51:09;;;;;;;1.50;1.40;;;12.40;99.90;;;;;;2106552;28;20075;-73
2021/12/31 04:52:10;;;;;;;1.77;1.38;;;12.40;99.90;;;;;;2106335;28;20372;-73
2021/12/31 04:53:10;;;;;;;1.80;1.33;;;12.40;99.90;;;;;;2106743;28;20373;-73
2021/12/31 04:54:16;;;;;;;1.40;1.30;;;12.40;99.90;;;;;;2106526;28;20030;-74
2021/12/31 04:55:16;;;;;;;2.92;1.40;;;12.40;99.90;;;;;;2097568;28;20047;-74
2021/12/31 04:56:17;;;;;;;1.50;1.40;;;12.50;99.90;;;;;;2097731;28;20037;-74
2021/12/31 04:57:20;;;;;;;1.50;1.40;;;12.50;99.90;;;;;;2106589;28;20059;-74
2021/12/31 04:58:21;;;;;;;1.90;1.33;;;12.40;99.90;;;;;;2106495;28;20479;-75
2021/12/31 04:59:21;;;;;;;2.05;1.23;;;12.50;99.90;;;;;;2106183;28;20032;-73
2021/12/31 05:00:22;;;;;;;1.70;1.35;;;12.50;99.90;;;;;;2097448;28;20119;-74
2021/12/31 05:01:23;;;;;;;2.08;1.27;;;12.60;99.90;;;;;;2097410;28;20035;-73
2021/12/31 05:02:23;;;;;;;1.63;1.25;;;12.60;99.90;;;;;;2106408;28;20423;-75
2021/12/31 05:03:24;;;;;;;4.43;1.63;;;12.70;99.90;;;;;;2106483;28;20024;-74
2021/12/31 05:04:24;;;;;;;1.30;1.25;;;12.70;99.90;;;;;;2106756;28;20132;-74
2021/12/31 05:05:25;;;;;;;1.77;1.40;;;12.70;99.90;;;;;;2106587;28;20063;-74
2021/12/31 05:06:26;;;;;;;1.55;1.40;;;12.70;99.90;;;;;;2106520;28;20035;-74
2021/12/31 05:07:26;;;;;;;1.30;1.20;;;12.70;99.90;;;;;;2097203;28;20029;-74
2021/12/31 05:08:27;;;;;;;2.58;1.50;;;12.70;99.90;;;;;;2089245;28;20033;-74
2021/12/31 05:09:28;;;;;;;1.25;1.13;;;12.80;99.90;;;;;;2097222;28;20029;-74
2021/12/31 05:10:31;;;;;;;2.67;1.38;;;12.80;99.90;;;;;;2106470;28;20085;-72
2021/12/31 05:11:32;;;;;;;2.13;1.45;;;12.80;99.90;;;;;;2106325;28;20027;-73
2021/12/31 05:12:36;;;;;;;1.35;1.25;;;12.80;99.90;;;;;;2106441;28;20471;-72
2021/12/31 05:13:36;;;;;;;2.38;1.33;;;12.80;99.90;;;;;;2106784;28;20433;-72
2021/12/31 05:14:37;;;;;;;2.15;1.30;;;12.80;99.90;;;;;;2097599;28;20119;-72
2021/12/31 05:15:44;;;;;;;1.88;1.20;;;12.80;99.90;;;;;;2089486;28;20033;-72
2021/12/31 05:16:46;;;;;;;1.23;1.15;;;12.80;99.90;;;;;;2098097;28;20056;-72
2021/12/31 05:17:47;;;;;;;1.42;1.33;;;12.80;99.90;;;;;;2097904;28;20041;-72
2021/12/31 05:18:48;;;;;;;3.20;1.50;;;12.90;99.90;;;;;;2096422;28;20024;-72
2021/12/31 05:19:48;;;;;;;2.22;1.20;;;12.90;99.90;;;;;;2097085;28;20036;-73
2021/12/31 05:20:49;;;;;;;3.40;1.40;;;12.90;99.90;;;;;;2097444;28;20028;-73
2021/12/31 05:21:50;;;;;;;2.55;1.30;;;12.90;99.90;;;;;;2097307;28;20776;-72
2021/12/31 05:22:52;;;;;;;1.40;1.30;;;13.00;99.90;;;;;;2106360;28;20036;-73
2021/12/31 05:23:53;;;;;;;1.98;1.20;;;13.00;99.90;;;;;;2106352;28;20099;-72
2021/12/31 05:24:54;;;;;;;2.25;1.40;;;13.00;99.90;;;;;;2097440;28;20021;-72